Monmouth, Kansas
Current Conditions -  °F | °C
As of 10:15 AM on Thursday 30 Oct 2014 (Local Time) from KPTS Reporting Station
Scattered Clouds Scattered Clouds  
Wind Chill: 58°   Ceiling: Unl
Heat Index: 58°   Visibility: 10mi
Dew Point: 47°   Wind: 13mph
Humidity: 66%   Direction: 230°SW
Pressure: 30.05"   Gusts: NA
Location:  37.3318°N, 95.0213°W
Report Text: KPTS 301515Z AUTO 23011KT 10SM SCT110 15/08 A3005 RMK AO2 T01470084
Loading
Personal Weather Stations






























Interactive Weather Map
Tropical Storm Tracking
New forecast layout! Learn more

10-Day Weather Forecast

Advertisements
Track Severe Weather on mobile